createdAt,value
2022-12-18T00:01:07.280Z,88.39
2022-12-18T00:03:34.747Z,88.36
2022-12-18T00:06:01.652Z,87.96
2022-12-18T00:08:28.298Z,88.25
2022-12-18T00:10:55.251Z,88.41
2022-12-18T00:13:26.477Z,88.42
2022-12-18T00:15:54.435Z,88.51
2022-12-18T00:18:23.200Z,88.21
2022-12-18T00:20:49.686Z,88.63
2022-12-18T00:23:16.206Z,89.00
2022-12-18T00:25:42.628Z,88.53
2022-12-18T00:28:09.109Z,88.42
2022-12-18T00:30:35.587Z,88.70
2022-12-18T00:33:02.085Z,88.67
2022-12-18T00:35:28.635Z,88.42
2022-12-18T00:37:55.064Z,88.46
2022-12-18T00:40:21.778Z,88.53
2022-12-18T00:42:57.325Z,88.71
2022-12-18T00:45:33.730Z,88.82
2022-12-18T00:48:00.286Z,88.75
2022-12-18T00:50:27.127Z,88.27
2022-12-18T00:52:53.599Z,88.73
2022-12-18T00:55:20.046Z,89.00
2022-12-18T00:57:46.494Z,89.00
2022-12-18T01:00:15.611Z,88.68
2022-12-18T01:02:42.873Z,89.21
2022-12-18T01:05:12.158Z,88.72
2022-12-18T01:07:39.042Z,89.05
2022-12-18T01:10:06.613Z,88.83
2022-12-18T01:12:33.196Z,88.87
2022-12-18T01:14:59.679Z,89.38
2022-12-18T01:17:26.137Z,89.15
2022-12-18T01:19:52.570Z,89.16
2022-12-18T01:22:19.114Z,89.33
2022-12-18T01:24:45.865Z,89.22
2022-12-18T01:27:12.323Z,89.36
2022-12-18T01:29:38.797Z,88.80
2022-12-18T01:32:05.523Z,88.96
2022-12-18T01:34:32.052Z,88.66
2022-12-18T01:36:58.546Z,88.99
2022-12-18T01:39:25.197Z,89.12
2022-12-18T01:42:03.855Z,88.83
2022-12-18T01:44:49.324Z,88.61
2022-12-18T01:47:24.733Z,88.93
2022-12-18T01:49:51.598Z,88.88
2022-12-18T01:52:18.895Z,88.50
2022-12-18T01:54:47.447Z,88.88
2022-12-18T01:57:14.468Z,88.78
2022-12-18T01:59:43.752Z,88.84
2022-12-18T02:02:10.277Z,89.14
2022-12-18T02:04:36.860Z,88.82
2022-12-18T02:07:30.756Z,88.86
2022-12-18T02:10:11.636Z,88.84
2022-12-18T02:12:44.498Z,89.07
2022-12-18T02:15:30.249Z,88.75
2022-12-18T02:18:04.192Z,88.78
2022-12-18T02:20:53.605Z,88.41
2022-12-18T02:23:35.416Z,88.53
2022-12-18T02:26:41.603Z,88.54
2022-12-18T02:29:14.340Z,88.05
2022-12-18T02:31:49.915Z,88.12
2022-12-18T02:34:18.720Z,88.17
2022-12-18T02:36:47.771Z,88.44
2022-12-18T02:39:16.600Z,88.28
2022-12-18T02:41:43.198Z,87.71
2022-12-18T02:44:12.580Z,87.32
2022-12-18T02:46:45.780Z,87.87
2022-12-18T02:49:20.932Z,87.53
2022-12-18T02:51:56.556Z,87.19
2022-12-18T02:54:31.788Z,87.07
2022-12-18T02:57:10.577Z,87.19
2022-12-18T03:00:06.932Z,87.06
2022-12-18T03:02:37.540Z,87.45
2022-12-18T03:05:56.564Z,86.89
2022-12-18T03:08:29.912Z,86.95
2022-12-18T03:11:04.276Z,86.98
2022-12-18T03:13:37.157Z,87.23
2022-12-18T03:16:07.225Z,86.82
2022-12-18T03:18:43.541Z,86.82
2022-12-18T03:21:12.416Z,86.53
2022-12-18T03:23:48.401Z,86.24
2022-12-18T03:26:18.806Z,86.63
2022-12-18T03:28:51.073Z,86.30
2022-12-18T03:31:19.505Z,86.51
2022-12-18T03:33:58.754Z,86.94
2022-12-18T03:36:25.697Z,87.17
2022-12-18T03:38:52.284Z,86.86
2022-12-18T03:41:34.643Z,87.35
2022-12-18T03:44:32.389Z,87.53
2022-12-18T03:47:16.206Z,87.14
2022-12-18T03:49:57.471Z,86.79
2022-12-18T03:52:43.566Z,86.96
2022-12-18T03:55:11.895Z,87.18
2022-12-18T03:57:39.769Z,87.16
2022-12-18T04:00:12.204Z,87.03
2022-12-18T04:02:44.083Z,87.00
2022-12-18T04:05:12.074Z,87.18
2022-12-18T04:07:39.912Z,87.51
2022-12-18T04:10:08.012Z,87.22
2022-12-18T04:12:34.500Z,87.08
2022-12-18T04:15:00.993Z,87.05
2022-12-18T04:17:27.500Z,86.80
2022-12-18T04:19:53.964Z,86.21
2022-12-18T04:22:20.405Z,86.80
2022-12-18T04:24:46.981Z,86.77
2022-12-18T04:27:13.563Z,86.29
2022-12-18T04:29:40.030Z,86.28
2022-12-18T04:32:06.751Z,86.67
2022-12-18T04:34:33.183Z,86.48
2022-12-18T04:36:59.695Z,86.21
2022-12-18T04:39:26.188Z,86.49
2022-12-18T04:41:53.038Z,86.41
2022-12-18T04:44:19.481Z,86.32
2022-12-18T04:46:45.988Z,86.67
2022-12-18T04:49:12.596Z,86.61
2022-12-18T04:51:39.558Z,86.48
2022-12-18T04:54:06.028Z,86.69
2022-12-18T04:56:33.059Z,86.82
2022-12-18T04:58:59.505Z,86.61
2022-12-18T05:01:30.989Z,86.71
2022-12-18T05:04:01.021Z,86.84
2022-12-18T05:06:27.501Z,87.38
2022-12-18T05:08:53.908Z,87.09
2022-12-18T05:11:20.410Z,87.58
2022-12-18T05:13:47.074Z,87.66
2022-12-18T05:16:14.631Z,87.35
2022-12-18T05:18:41.134Z,87.25
2022-12-18T05:21:07.586Z,87.82
2022-12-18T05:23:37.798Z,87.75
2022-12-18T05:26:07.029Z,86.78
2022-12-18T05:28:35.321Z,87.21
2022-12-18T05:31:04.023Z,87.09
2022-12-18T05:33:32.896Z,87.51
2022-12-18T05:36:01.732Z,87.33
2022-12-18T05:38:29.971Z,87.63
2022-12-18T05:40:57.036Z,87.68
2022-12-18T05:43:24.648Z,87.75
2022-12-18T05:45:51.876Z,87.53
2022-12-18T05:48:18.672Z,87.33
2022-12-18T05:50:46.819Z,87.00
2022-12-18T05:53:15.442Z,87.10
2022-12-18T05:55:43.653Z,87.18
2022-12-18T05:58:12.642Z,87.06
2022-12-18T06:00:41.761Z,86.95
2022-12-18T06:03:10.600Z,86.99
2022-12-18T06:05:39.412Z,86.99
2022-12-18T06:08:06.056Z,87.60
2022-12-18T06:10:32.564Z,87.45
2022-12-18T06:12:59.192Z,87.46
2022-12-18T06:15:25.655Z,87.51
2022-12-18T06:17:52.395Z,87.34
2022-12-18T06:20:19.718Z,87.52
2022-12-18T06:22:46.152Z,86.90
2022-12-18T06:25:12.796Z,87.54
2022-12-18T06:27:39.575Z,87.16
2022-12-18T06:30:06.725Z,87.75
2022-12-18T06:32:33.257Z,87.67
2022-12-18T06:34:59.675Z,87.38
2022-12-18T06:37:27.058Z,87.03
2022-12-18T06:39:54.629Z,87.36
2022-12-18T06:42:21.051Z,87.43
2022-12-18T06:44:47.504Z,86.99
2022-12-18T06:47:13.957Z,87.60
2022-12-18T06:49:40.423Z,87.33
2022-12-18T06:52:06.883Z,86.72
2022-12-18T06:54:33.333Z,87.43
2022-12-18T06:56:59.812Z,87.41
2022-12-18T06:59:26.218Z,87.50
2022-12-18T07:01:53.737Z,87.59
2022-12-18T07:04:20.320Z,88.11
2022-12-18T07:06:46.720Z,88.10
2022-12-18T07:09:13.187Z,87.63
2022-12-18T07:11:39.679Z,87.35
2022-12-18T07:14:06.377Z,87.68
2022-12-18T07:16:32.915Z,87.17
2022-12-18T07:19:00.556Z,87.51
2022-12-18T07:21:27.022Z,87.47
2022-12-18T07:23:53.579Z,87.86
2022-12-18T07:26:21.409Z,87.12
2022-12-18T07:28:48.546Z,87.85
2022-12-18T07:31:18.333Z,87.57
2022-12-18T07:33:46.402Z,87.83
2022-12-18T07:36:13.881Z,87.29
2022-12-18T07:38:40.933Z,87.61
2022-12-18T07:41:10.933Z,87.17
2022-12-18T07:43:38.672Z,87.49
2022-12-18T07:46:05.956Z,87.23
2022-12-18T07:48:32.714Z,87.09
2022-12-18T07:51:05.185Z,87.15
2022-12-18T07:53:32.536Z,87.21
2022-12-18T07:56:26.671Z,86.88
2022-12-18T07:58:52.672Z,86.72
2022-12-18T08:01:19.272Z,86.80
2022-12-18T08:03:47.895Z,86.83
2022-12-18T08:06:15.038Z,86.20
2022-12-18T08:08:43.126Z,86.52
2022-12-18T08:11:09.721Z,86.40
2022-12-18T08:13:36.439Z,86.37
2022-12-18T08:16:08.189Z,85.99
2022-12-18T08:18:36.797Z,86.19
2022-12-18T08:21:22.090Z,85.38
2022-12-18T08:23:50.020Z,85.58
2022-12-18T08:26:17.950Z,85.22
2022-12-18T08:28:45.485Z,84.71
2022-12-18T08:31:12.045Z,85.01
2022-12-18T08:33:40.225Z,85.11
2022-12-18T08:36:09.103Z,84.84
2022-12-18T08:38:35.631Z,84.94
2022-12-18T08:41:07.162Z,84.61
2022-12-18T08:43:52.741Z,85.02
2022-12-18T08:46:20.872Z,84.28
2022-12-18T08:48:48.105Z,84.16
2022-12-18T08:51:17.335Z,83.91
2022-12-18T08:53:45.494Z,83.92
2022-12-18T08:56:12.800Z,83.84
2022-12-18T08:58:39.939Z,83.36
2022-12-18T09:01:12.098Z,83.08
2022-12-18T09:03:39.169Z,83.22
2022-12-18T09:06:06.887Z,83.09
2022-12-18T09:08:33.490Z,82.79
2022-12-18T09:11:00.037Z,82.65
2022-12-18T09:13:26.585Z,82.51
2022-12-18T09:15:54.675Z,82.49
2022-12-18T09:18:22.792Z,82.63
2022-12-18T09:20:51.170Z,82.25
2022-12-18T09:23:17.672Z,81.82
2022-12-18T09:25:44.174Z,81.52
2022-12-18T09:28:15.688Z,81.52
2022-12-18T09:30:45.244Z,81.27
2022-12-18T09:33:12.010Z,81.22
2022-12-18T09:35:41.546Z,80.51
2022-12-18T09:38:12.366Z,80.78
2022-12-18T09:40:49.732Z,80.68
2022-12-18T09:43:40.625Z,80.48
2022-12-18T09:46:12.560Z,80.18
2022-12-18T09:48:45.484Z,79.95
2022-12-18T09:51:37.171Z,79.82
2022-12-18T09:54:08.407Z,79.33
2022-12-18T09:56:41.113Z,79.45
2022-12-18T09:59:24.054Z,79.10
2022-12-18T10:01:50.777Z,79.15
2022-12-18T10:04:17.449Z,79.10
2022-12-18T10:06:53.758Z,78.86
2022-12-18T10:09:25.048Z,78.69
2022-12-18T10:12:00.838Z,78.51
2022-12-18T10:14:27.280Z,78.39
2022-12-18T10:17:18.731Z,78.65
2022-12-18T10:19:54.100Z,78.53
2022-12-18T10:22:29.997Z,78.01
2022-12-18T10:25:17.956Z,78.14
2022-12-18T10:27:44.871Z,78.31
2022-12-18T10:30:20.130Z,78.08
2022-12-18T10:32:46.696Z,77.48
2022-12-18T10:35:20.643Z,77.40
2022-12-18T10:38:06.143Z,77.32
2022-12-18T10:40:33.955Z,77.68
2022-12-18T10:43:12.806Z,77.26
2022-12-18T10:45:39.297Z,77.20
2022-12-18T10:48:18.537Z,77.06
2022-12-18T10:51:10.412Z,77.03
2022-12-18T10:53:38.499Z,77.05
2022-12-18T10:56:07.494Z,76.97
2022-12-18T10:58:36.522Z,76.94
2022-12-18T11:01:10.525Z,76.68
2022-12-18T11:04:02.452Z,76.31
2022-12-18T11:06:30.091Z,76.63
2022-12-18T11:09:19.586Z,76.39
2022-12-18T11:12:01.527Z,76.77
2022-12-18T11:14:46.766Z,76.59
2022-12-18T11:17:35.819Z,75.83
2022-12-18T11:20:05.310Z,76.26
2022-12-18T11:22:34.427Z,76.06
2022-12-18T11:25:32.689Z,76.18
2022-12-18T11:27:57.041Z,75.75
2022-12-18T11:30:35.958Z,75.75
2022-12-18T11:33:22.802Z,76.25
2022-12-18T11:36:03.684Z,75.88
2022-12-18T11:38:35.535Z,75.54
2022-12-18T11:41:05.058Z,75.41
2022-12-18T11:43:50.861Z,75.56
2022-12-18T11:46:35.304Z,75.82
2022-12-18T11:49:12.770Z,75.95
2022-12-18T11:51:49.794Z,75.54
2022-12-18T11:54:17.368Z,75.51
2022-12-18T11:57:22.141Z,75.86
2022-12-18T12:00:00.538Z,75.56
2022-12-18T12:02:49.698Z,75.13
2022-12-18T12:05:29.776Z,75.00
2022-12-18T12:08:14.988Z,74.93
2022-12-18T12:10:50.796Z,74.98
2022-12-18T12:13:38.913Z,74.68
2022-12-18T12:16:08.496Z,74.43
2022-12-18T12:18:50.259Z,74.70
2022-12-18T12:21:23.661Z,74.72
2022-12-18T12:24:22.238Z,74.56
2022-12-18T12:27:41.349Z,73.80
2022-12-18T12:30:16.929Z,74.79
2022-12-18T12:32:52.459Z,75.46
2022-12-18T12:35:43.661Z,75.24
2022-12-18T12:38:16.944Z,74.51
2022-12-18T12:40:58.755Z,74.85
2022-12-18T12:43:58.263Z,74.48
2022-12-18T12:46:27.383Z,74.74
2022-12-18T12:48:59.478Z,74.85
2022-12-18T12:51:36.550Z,74.78
2022-12-18T12:54:07.517Z,74.90
2022-12-18T12:56:51.815Z,74.69
2022-12-18T12:59:21.325Z,75.10
2022-12-18T13:02:06.043Z,74.72
2022-12-18T13:04:50.990Z,74.96
2022-12-18T13:07:33.494Z,74.45
2022-12-18T13:10:17.843Z,75.20
2022-12-18T13:12:58.580Z,74.85
2022-12-18T13:15:40.048Z,75.23
2022-12-18T13:18:09.565Z,74.52
2022-12-18T13:20:37.178Z,74.47
2022-12-18T13:23:25.633Z,74.58
2022-12-18T13:26:08.486Z,74.96
2022-12-18T13:28:41.136Z,75.23
2022-12-18T13:31:07.663Z,75.77
2022-12-18T13:34:16.441Z,75.75
2022-12-18T13:36:30.087Z,76.21
2022-12-18T13:39:27.699Z,75.82
2022-12-18T13:42:05.497Z,75.80
2022-12-18T13:44:41.527Z,76.14
2022-12-18T13:47:32.285Z,76.20
2022-12-18T13:49:59.468Z,75.78
2022-12-18T13:52:36.167Z,76.00
2022-12-18T13:55:07.835Z,75.72
2022-12-18T13:57:39.322Z,75.59
2022-12-18T14:00:25.371Z,76.16
2022-12-18T14:02:52.835Z,75.73
2022-12-18T14:05:31.123Z,76.22
2022-12-18T14:08:02.852Z,76.06
2022-12-18T14:10:49.086Z,75.78
2022-12-18T14:13:32.251Z,75.75
2022-12-18T14:16:04.096Z,76.05
2022-12-18T14:18:49.092Z,76.20
2022-12-18T14:21:30.464Z,75.94
2022-12-18T14:24:07.685Z,76.06
2022-12-18T14:26:34.448Z,75.68
2022-12-18T14:29:18.888Z,75.92
2022-12-18T14:31:46.094Z,75.81
2022-12-18T14:34:18.590Z,75.66
2022-12-18T14:36:53.930Z,76.01
2022-12-18T14:39:20.407Z,76.06
2022-12-18T14:41:50.142Z,75.91
2022-12-18T14:44:16.702Z,76.02
2022-12-18T14:46:45.534Z,75.96
2022-12-18T14:49:34.259Z,75.45
2022-12-18T14:52:03.279Z,75.76
2022-12-18T14:54:31.342Z,75.98
2022-12-18T14:57:03.397Z,75.93
2022-12-18T14:59:31.339Z,76.05
2022-12-18T15:02:25.408Z,76.15
2022-12-18T15:05:13.549Z,75.95
2022-12-18T15:07:45.450Z,76.34
2022-12-18T15:10:15.747Z,76.28
2022-12-18T15:12:48.169Z,76.12
2022-12-18T15:15:44.411Z,76.03
2022-12-18T15:18:13.855Z,75.85
2022-12-18T15:20:52.565Z,76.10
2022-12-18T15:23:23.316Z,76.27
2022-12-18T15:25:57.620Z,76.20
2022-12-18T15:28:40.905Z,76.18
2022-12-18T15:31:14.594Z,76.21
2022-12-18T15:33:46.954Z,75.92
2022-12-18T15:36:19.326Z,75.98
2022-12-18T15:38:57.308Z,76.01
2022-12-18T15:41:35.251Z,76.36
2022-12-18T15:44:04.390Z,76.49
2022-12-18T15:46:31.949Z,76.44
2022-12-18T15:49:02.158Z,76.33
2022-12-18T15:51:33.288Z,76.66
2022-12-18T15:54:02.034Z,76.41
2022-12-18T15:56:47.216Z,76.67
2022-12-18T15:59:17.079Z,76.90
2022-12-18T16:01:47.031Z,76.85
2022-12-18T16:04:15.743Z,76.84
2022-12-18T16:07:12.671Z,76.73
2022-12-18T16:09:29.018Z,76.42
2022-12-18T16:11:55.484Z,76.56
2022-12-18T16:14:30.671Z,76.69
2022-12-18T16:17:02.742Z,76.59
2022-12-18T16:19:30.434Z,76.51
2022-12-18T16:21:58.609Z,76.88
2022-12-18T16:24:27.730Z,76.82
2022-12-18T16:26:55.336Z,76.61
2022-12-18T16:29:25.731Z,76.56
2022-12-18T16:31:53.132Z,76.90
2022-12-18T16:34:35.924Z,77.02
2022-12-18T16:37:06.438Z,77.15
2022-12-18T16:39:35.267Z,77.20
2022-12-18T16:42:08.181Z,77.63
2022-12-18T16:44:35.218Z,77.84
2022-12-18T16:47:03.258Z,77.64
2022-12-18T16:49:30.465Z,77.71
2022-12-18T16:51:57.177Z,77.99
2022-12-18T16:54:23.814Z,78.11
2022-12-18T16:56:51.784Z,78.00
2022-12-18T16:59:18.763Z,78.24
2022-12-18T17:01:45.384Z,78.56
2022-12-18T17:04:12.010Z,78.73
2022-12-18T17:06:44.607Z,78.82
2022-12-18T17:09:14.971Z,79.00
2022-12-18T17:11:41.965Z,79.28
2022-12-18T17:14:11.253Z,79.12
2022-12-18T17:16:37.963Z,79.31
2022-12-18T17:19:08.789Z,79.47
2022-12-18T17:21:38.822Z,79.65
2022-12-18T17:24:07.103Z,79.62
2022-12-18T17:26:33.769Z,79.54
2022-12-18T17:29:00.337Z,79.73
2022-12-18T17:31:30.039Z,79.90
2022-12-18T17:33:57.613Z,80.00
2022-12-18T17:36:28.403Z,80.04
2022-12-18T17:38:57.378Z,80.13
2022-12-18T17:41:24.964Z,79.94
2022-12-18T17:43:57.558Z,80.29
2022-12-18T17:46:25.848Z,80.05
2022-12-18T17:48:55.242Z,80.38
2022-12-18T17:51:21.681Z,80.59
2022-12-18T17:53:48.644Z,80.34
2022-12-18T17:56:17.148Z,80.17
2022-12-18T17:58:44.225Z,80.88
2022-12-18T18:01:23.371Z,80.79
2022-12-18T18:03:53.499Z,80.58
2022-12-18T18:06:20.965Z,80.93
2022-12-18T18:08:48.178Z,80.72
2022-12-18T18:11:36.443Z,80.65
2022-12-18T18:14:06.192Z,80.77
2022-12-18T18:16:47.563Z,80.68
2022-12-18T18:19:20.674Z,81.14
2022-12-18T18:21:49.117Z,81.20
2022-12-18T18:24:18.748Z,81.47
2022-12-18T18:26:49.205Z,81.47
2022-12-18T18:29:27.061Z,81.76
2022-12-18T18:31:55.458Z,81.57
2022-12-18T18:34:24.705Z,81.49
2022-12-18T18:36:51.876Z,81.65
2022-12-18T18:39:19.005Z,81.60
2022-12-18T18:41:48.455Z,81.67
2022-12-18T18:44:16.447Z,81.29
2022-12-18T18:46:43.131Z,81.96
2022-12-18T18:49:09.777Z,81.80
2022-12-18T18:51:36.370Z,81.76
2022-12-18T18:54:04.484Z,81.77
2022-12-18T18:59:18.298Z,82.33
2022-12-18T19:01:45.120Z,82.15
2022-12-18T19:04:12.472Z,82.33
2022-12-18T19:06:39.717Z,82.23
2022-12-18T19:09:07.333Z,82.19
2022-12-18T19:11:52.661Z,82.35
2022-12-18T19:14:20.240Z,82.35
2022-12-18T19:16:46.762Z,82.54
2022-12-18T19:19:13.791Z,82.25
2022-12-18T19:21:40.778Z,82.28
2022-12-18T19:24:07.651Z,82.23
2022-12-18T19:26:35.872Z,82.35
2022-12-18T19:29:07.753Z,82.32
2022-12-18T19:31:36.403Z,82.29
2022-12-18T19:34:05.173Z,82.40
2022-12-18T19:36:32.926Z,82.38
2022-12-18T19:39:01.511Z,81.99
2022-12-18T19:41:31.147Z,82.04
2022-12-18T19:43:59.845Z,81.77
2022-12-18T19:46:26.675Z,81.93
2022-12-18T19:48:53.664Z,81.69
2022-12-18T19:51:23.445Z,81.73
2022-12-18T19:53:56.406Z,81.60
2022-12-18T19:56:27.657Z,81.37
2022-12-18T19:58:55.124Z,81.48
2022-12-18T20:01:24.190Z,81.57
2022-12-18T20:03:54.518Z,81.31
2022-12-18T20:06:25.600Z,81.26
2022-12-18T20:08:52.352Z,81.03
2022-12-18T20:11:20.658Z,81.33
2022-12-18T20:13:47.299Z,81.02
2022-12-18T20:16:14.569Z,80.75
2022-12-18T20:18:41.129Z,80.71
2022-12-18T20:21:13.624Z,80.84
2022-12-18T20:23:40.834Z,81.03
2022-12-18T20:26:08.696Z,80.58
2022-12-18T20:28:35.807Z,80.81
2022-12-18T20:31:05.192Z,80.56
2022-12-18T20:33:32.058Z,81.20
2022-12-18T20:36:05.495Z,80.86
2022-12-18T20:38:33.827Z,80.98
2022-12-18T20:41:02.411Z,80.83
2022-12-18T20:43:30.017Z,80.76
2022-12-18T20:46:04.839Z,80.83
2022-12-18T20:48:31.848Z,80.92
2022-12-18T20:51:00.081Z,80.64
2022-12-18T20:53:29.200Z,80.75
2022-12-18T20:55:55.729Z,80.92
2022-12-18T20:58:22.194Z,80.67
2022-12-18T21:00:49.037Z,80.69
2022-12-18T21:03:15.881Z,80.88
2022-12-18T21:05:42.468Z,80.97
2022-12-18T21:08:09.978Z,81.14
2022-12-18T21:10:39.331Z,81.19
2022-12-18T21:13:07.299Z,81.19
2022-12-18T21:15:35.953Z,81.33
2022-12-18T21:18:02.448Z,81.51
2022-12-18T21:20:29.108Z,81.76
2022-12-18T21:22:57.304Z,82.51
2022-12-18T21:25:29.832Z,83.26
2022-12-18T21:27:56.335Z,83.74
2022-12-18T21:30:22.890Z,83.79
2022-12-18T21:32:49.493Z,85.15
2022-12-18T21:35:15.950Z,85.55
2022-12-18T21:37:43.788Z,85.68
2022-12-18T21:40:10.927Z,86.02
2022-12-18T21:42:56.064Z,86.41
2022-12-18T21:45:22.619Z,86.76
2022-12-18T21:47:49.084Z,86.55
2022-12-18T21:50:15.685Z,87.23
2022-12-18T21:52:42.182Z,87.64
2022-12-18T21:55:10.098Z,87.73
2022-12-18T21:57:38.132Z,87.77
2022-12-18T22:00:06.531Z,88.16
2022-12-18T22:02:33.167Z,88.21
2022-12-18T22:04:59.850Z,88.42
2022-12-18T22:07:28.926Z,88.79
2022-12-18T22:09:55.395Z,89.04
2022-12-18T22:12:35.503Z,89.51
2022-12-18T22:15:04.452Z,89.43
2022-12-18T22:17:31.080Z,89.53
2022-12-18T22:19:57.705Z,90.25
2022-12-18T22:22:24.460Z,90.23
2022-12-18T22:24:51.029Z,90.82
2022-12-18T22:27:17.495Z,91.62
2022-12-18T22:30:02.615Z,91.60
2022-12-18T22:32:30.626Z,92.80
2022-12-18T22:35:08.055Z,93.08
2022-12-18T22:37:35.837Z,93.84
2022-12-18T22:40:04.930Z,94.11
2022-12-18T22:42:32.561Z,94.25
2022-12-18T22:45:00.320Z,94.61
2022-12-18T22:47:30.043Z,94.60
2022-12-18T22:49:57.475Z,94.76
2022-12-18T22:52:25.005Z,94.65
2022-12-18T22:54:53.251Z,94.94
2022-12-18T22:57:20.359Z,94.67
2022-12-18T22:59:46.859Z,95.04
2022-12-18T23:02:13.469Z,96.13
2022-12-18T23:04:40.038Z,96.38
2022-12-18T23:07:07.607Z,96.26
2022-12-18T23:09:34.612Z,96.12
2022-12-18T23:12:01.311Z,96.03
2022-12-18T23:14:29.065Z,96.40
2022-12-18T23:16:55.677Z,96.44
2022-12-18T23:19:23.523Z,96.03
2022-12-18T23:21:51.200Z,96.30
2022-12-18T23:24:17.917Z,96.18
2022-12-18T23:26:44.386Z,96.25
2022-12-18T23:29:10.823Z,96.45
2022-12-18T23:31:39.597Z,96.55
2022-12-18T23:34:07.036Z,96.34
2022-12-18T23:36:45.334Z,96.40
2022-12-18T23:39:29.017Z,96.70
2022-12-18T23:41:57.639Z,96.01
2022-12-18T23:44:24.116Z,96.52
2022-12-18T23:46:50.669Z,96.29
2022-12-18T23:49:17.157Z,96.11
2022-12-18T23:51:43.670Z,95.94
2022-12-18T23:54:10.380Z,95.76
2022-12-18T23:56:36.856Z,95.97
2022-12-18T23:59:03.391Z,95.93
